Time;durP1;ratioP1;P1;durP2;ratioP2;P2;SDS_P1;SDS_P2;PMS_P1;PMS_P2;Temp;Humidity;BMP_temperature;BMP_pressure;BME280_temperature;BME280_humidity;BME280_pressure;Samples;Min_cycle;Max_cycle;Signal;HPM_P1;HPM_P2
2023/07/03 00:00:50;;;;;;;12.40;9.00;;;;;;;19.99;100.00;100259.17;109241;1244;72145;-72
2023/07/03 00:03:39;;;;;;;8.60;7.50;;;;;;;20.05;100.00;100261.13;109365;1244;61970;-73
2023/07/03 00:06:08;;;;;;;8.90;8.00;;;;;;;20.10;100.00;100259.20;109301;1243;62547;-74
2023/07/03 00:08:37;;;;;;;9.00;7.50;;;;;;;20.09;100.00;100260.08;109327;1243;58216;-73
2023/07/03 00:11:06;;;;;;;11.20;9.20;;;;;;;20.05;100.00;100266.77;109383;1244;58306;-73
2023/07/03 00:13:35;;;;;;;14.20;9.00;;;;;;;20.06;100.00;100267.73;109353;1243;74347;-73
2023/07/03 00:16:04;;;;;;;10.40;8.70;;;;;;;20.06;100.00;100267.67;109355;1244;72846;-73
2023/07/03 00:18:34;;;;;;;12.10;10.30;;;;;;;20.07;100.00;100270.90;109274;1243;59489;-73
2023/07/03 00:21:02;;;;;;;10.30;8.00;;;;;;;20.13;100.00;100265.23;109226;1243;72952;-73
2023/07/03 00:23:31;;;;;;;10.30;8.70;;;;;;;20.18;100.00;100264.67;109125;1243;272618;-73
2023/07/03 00:26:00;;;;;;;14.50;9.20;;;;;;;20.17;100.00;100266.61;109370;1244;58313;-73
2023/07/03 00:28:29;;;;;;;10.70;9.60;;;;;;;20.17;100.00;100270.30;109372;1244;74974;-73
2023/07/03 00:30:58;;;;;;;10.80;8.70;;;;;;;20.19;100.00;100268.12;109369;1244;61941;-73
2023/07/03 00:33:27;;;;;;;12.50;9.20;;;;;;;20.22;100.00;100264.77;109380;1244;59254;-73
2023/07/03 00:35:56;;;;;;;10.50;8.80;;;;;;;20.20;100.00;100266.55;109489;1244;73146;-72
2023/07/03 00:38:24;;;;;;;9.70;8.80;;;;;;;20.19;100.00;100266.52;109469;1243;62206;-72
2023/07/03 00:40:53;;;;;;;10.60;8.40;;;;;;;20.19;100.00;100265.30;109488;1243;58303;-72
2023/07/03 00:43:23;;;;;;;11.80;7.90;;;;;;;20.17;100.00;100270.99;109461;1244;74371;-72
2023/07/03 00:45:52;;;;;;;11.80;8.30;;;;;;;20.25;100.00;100273.58;109393;1244;71314;-72
2023/07/03 00:48:21;;;;;;;10.20;9.10;;;;;;;20.27;100.00;100279.98;109503;1243;60468;-73
2023/07/03 00:50:50;;;;;;;12.60;9.90;;;;;;;20.30;100.00;100281.57;109517;1245;63331;-72
2023/07/03 00:53:19;;;;;;;12.50;9.20;;;;;;;20.31;100.00;100279.89;109458;1245;62808;-72
2023/07/03 00:55:47;;;;;;;10.50;9.50;;;;;;;20.33;100.00;100280.91;109284;1243;58256;-72
2023/07/03 00:58:16;;;;;;;14.00;9.60;;;;;;;20.34;100.00;100284.19;109164;1243;73406;-72
2023/07/03 01:00:53;;;;;;;9.00;8.10;;;;;;;20.36;100.00;100284.58;109104;1244;62190;-72
2023/07/03 01:03:40;;;;;;;10.90;9.30;;;;;;;20.42;100.00;100279.30;109246;1243;70325;-72
2023/07/03 01:06:19;;;;;;;11.50;8.50;;;;;;;20.38;100.00;100278.45;109240;1244;62868;-72
2023/07/03 01:08:54;;;;;;;9.70;8.10;;;;;;;20.39;100.00;100288.83;109271;1245;57832;-72
2023/07/03 01:11:25;;;;;;;13.00;9.70;;;;;;;20.35;100.00;100294.61;109276;1247;58355;-72
2023/07/03 01:13:59;;;;;;;9.50;8.40;;;;;;;20.31;100.00;100300.59;109307;1243;73571;-72
2023/07/03 01:16:32;;;;;;;13.00;9.70;;;;;;;20.25;100.00;100302.56;109439;1243;61318;-72
2023/07/03 01:19:02;;;;;;;12.50;10.40;;;;;;;20.21;100.00;100306.22;109285;1243;69677;-72
2023/07/03 01:21:44;;;;;;;10.10;9.10;;;;;;;20.20;100.00;100312.00;109361;1244;73255;-72
2023/07/03 01:24:30;;;;;;;11.60;9.10;;;;;;;20.21;100.00;100314.58;109191;1247;58376;-73
2023/07/03 01:27:05;;;;;;;11.10;9.60;;;;;;;20.19;100.00;100321.65;109405;1244;61026;-72
2023/07/03 01:29:35;;;;;;;14.60;10.40;;;;;;;20.17;100.00;100318.92;109315;1244;74637;-72
2023/07/03 01:32:07;;;;;;;11.30;10.10;;;;;;;20.16;100.00;100320.13;109326;1243;62088;-71
2023/07/03 01:34:40;;;;;;;14.20;10.50;;;;;;;20.20;100.00;100323.37;109461;1243;70534;-71
2023/07/03 01:37:11;;;;;;;13.50;10.00;;;;;;;20.29;100.00;100323.27;109466;1243;63409;-71
2023/07/03 01:39:43;;;;;;;11.60;10.00;;;;;;;20.39;100.00;100326.70;109451;1243;61999;-71
2023/07/03 01:42:13;;;;;;;10.30;9.10;;;;;;;20.46;100.00;100325.87;109467;1244;58251;-72
2023/07/03 01:44:42;;;;;;;10.90;9.10;;;;;;;20.53;100.00;100323.27;109472;1244;64260;-72
2023/07/03 01:47:14;;;;;;;11.80;9.40;;;;;;;20.56;100.00;100329.14;109482;1243;71958;-72
2023/07/03 01:49:42;;;;;;;11.20;9.80;;;;;;;20.56;100.00;100335.70;109466;1243;70429;-72
2023/07/03 01:52:20;;;;;;;10.00;8.10;;;;;;;20.60;100.00;100336.75;109487;1243;74154;-72
2023/07/03 01:55:08;;;;;;;11.30;9.30;;;;;;;20.62;100.00;100340.98;109469;1245;58633;-72
2023/07/03 01:57:44;;;;;;;12.50;8.20;;;;;;;20.56;100.00;100343.60;109453;1243;61267;-73
2023/07/03 02:00:22;;;;;;;9.90;8.90;;;;;;;20.49;100.00;100344.98;109566;1244;73974;-72
2023/07/03 02:02:56;;;;;;;14.00;9.90;;;;;;;20.38;100.00;100349.33;109445;1244;61694;-73
2023/07/03 02:05:30;;;;;;;10.70;9.50;;;;;;;20.38;100.00;100352.48;109380;1243;69457;-72
2023/07/03 02:08:01;;;;;;;9.70;8.50;;;;;;;20.42;100.00;100351.30;109305;1246;63444;-71
2023/07/03 02:10:30;;;;;;;8.50;7.40;;;;;;;20.48;100.00;100358.58;109327;1247;57756;-72
2023/07/03 02:12:59;;;;;;;8.60;7.60;;;;;;;20.55;100.00;100357.34;109355;1244;57744;-72
2023/07/03 02:15:28;;;;;;;8.10;7.20;;;;;;;20.62;100.00;100360.94;109436;1244;73691;-72
2023/07/03 02:17:57;;;;;;;8.80;7.50;;;;;;;20.62;100.00;100361.36;109428;1243;72363;-72
2023/07/03 02:20:26;;;;;;;8.00;7.20;;;;;;;20.68;100.00;100360.70;109534;1244;60673;-72
2023/07/03 02:22:56;;;;;;;9.00;6.70;;;;;;;20.75;100.00;100367.88;109517;1244;63291;-71
2023/07/03 02:25:25;;;;;;;9.00;7.20;;;;;;;20.75;100.00;100370.14;109445;1244;61999;-72
2023/07/03 02:27:54;;;;;;;8.70;7.10;;;;;;;20.73;100.00;100370.79;109566;1243;62692;-71
2023/07/03 02:30:23;;;;;;;8.90;7.10;;;;;;;20.65;100.00;100373.18;109645;1244;63980;-71
2023/07/03 02:32:52;;;;;;;8.80;7.20;;;;;;;20.57;100.00;100373.77;109413;1244;70794;-71
2023/07/03 02:35:21;;;;;;;8.70;7.50;;;;;;;20.46;100.00;100375.77;109284;1243;70750;-72
2023/07/03 02:37:50;;;;;;;10.60;7.70;;;;;;;20.44;100.00;100386.64;109275;1247;63620;-72
2023/07/03 02:40:19;;;;;;;9.50;8.50;;;;;;;20.40;100.00;100388.33;109476;1244;58249;-73
2023/07/03 02:42:47;;;;;;;11.50;7.10;;;;;;;20.36;100.00;100392.61;109487;1243;60996;-72
2023/07/03 02:45:19;;;;;;;10.20;7.70;;;;;;;20.43;100.00;100393.31;109473;1245;65042;-74
2023/07/03 02:47:48;;;;;;;10.30;6.30;;;;;;;20.42;100.00;100391.95;109393;1245;60908;-72
2023/07/03 02:50:17;;;;;;;8.40;6.70;;;;;;;20.45;100.00;100394.83;109481;1245;59026;-72
2023/07/03 02:52:46;;;;;;;10.30;7.30;;;;;;;20.42;100.00;100397.27;109449;1245;62454;-72
2023/07/03 02:55:14;;;;;;;8.20;7.20;;;;;;;20.45;100.00;100398.04;109393;1244;63071;-72
2023/07/03 02:57:43;;;;;;;8.10;7.10;;;;;;;20.46;100.00;100397.70;109303;1247;61792;-72
2023/07/03 03:00:13;;;;;;;11.10;7.20;;;;;;;20.47;100.00;100397.60;109492;1243;64294;-72
2023/07/03 03:02:44;;;;;;;7.70;6.80;;;;;;;20.45;100.00;100400.79;109535;1244;60743;-72
2023/07/03 03:05:13;;;;;;;8.90;7.10;;;;;;;20.46;100.00;100403.46;109432;1247;59253;-72
2023/07/03 03:07:43;;;;;;;10.10;6.80;;;;;;;20.47;100.00;100406.81;109391;1243;72988;-72
2023/07/03 03:10:11;;;;;;;8.10;6.70;;;;;;;20.50;100.00;100403.23;109426;1246;62504;-72
2023/07/03 03:12:40;;;;;;;7.80;6.70;;;;;;;20.47;100.00;100405.85;109519;1245;57788;-72
2023/07/03 03:15:09;;;;;;;7.90;7.10;;;;;;;20.51;100.00;100408.27;109558;1245;63570;-72
2023/07/03 03:17:38;;;;;;;11.00;7.50;;;;;;;20.52;100.00;100405.70;109561;1245;60721;-72
2023/07/03 03:20:08;;;;;;;8.40;7.00;;;;;;;20.49;100.00;100408.29;109415;1245;59804;-72
2023/07/03 03:22:37;;;;;;;8.50;6.90;;;;;;;20.53;100.00;100408.05;109491;1244;73922;-72
2023/07/03 03:25:06;;;;;;;9.60;7.20;;;;;;;20.49;100.00;100414.10;109493;1245;63201;-72
2023/07/03 03:27:35;;;;;;;7.60;6.80;;;;;;;20.47;100.00;100417.92;109322;1244;57710;-72
2023/07/03 03:30:04;;;;;;;9.30;7.10;;;;;;;20.48;100.00;100410.89;109500;1243;73838;-72
2023/07/03 03:32:35;;;;;;;8.30;6.70;;;;;;;20.49;100.00;100413.83;109496;1244;62470;-72
2023/07/03 03:35:05;;;;;;;10.90;6.50;;;;;;;20.53;100.00;100416.35;109402;1244;59045;-72
2023/07/03 03:37:34;;;;;;;7.50;6.80;;;;;;;20.56;100.00;100423.41;109469;1243;64193;-72
2023/07/03 03:40:07;;;;;;;8.00;7.20;;;;;;;20.56;100.00;100429.61;109405;1247;57786;-72
2023/07/03 03:42:36;;;;;;;7.70;6.90;;;;;;;20.53;100.00;100431.21;109437;1243;57948;-72
2023/07/03 03:45:06;;;;;;;9.90;6.90;;;;;;;20.53;100.00;100436.83;109384;1245;63143;-72
2023/07/03 03:47:35;;;;;;;9.40;7.50;;;;;;;20.54;100.00;100444.52;109422;1243;72252;-72
2023/07/03 03:50:06;;;;;;;8.40;6.50;;;;;;;20.53;100.00;100444.49;109274;1243;70878;-72
2023/07/03 03:52:38;;;;;;;10.40;6.50;;;;;;;20.53;100.00;100444.27;109486;1243;74135;-72
2023/07/03 03:55:08;;;;;;;7.20;6.30;;;;;;;20.55;100.00;100448.87;109485;1245;58339;-72
2023/07/03 03:57:36;;;;;;;7.90;6.80;;;;;;;20.54;100.00;100451.05;109399;1243;61228;-72
2023/07/03 04:00:16;;;;;;;8.30;6.80;;;;;;;20.55;100.00;100453.61;109521;1243;64784;-72
2023/07/03 04:02:46;;;;;;;10.50;6.80;;;;;;;20.53;100.00;100454.39;109434;1244;60973;-71
2023/07/03 04:05:15;;;;;;;8.60;6.60;;;;;;;20.52;100.00;100458.90;109447;1243;68443;-72
2023/07/03 04:07:45;;;;;;;8.80;6.80;;;;;;;20.53;100.00;100458.75;109406;1243;74436;-72
2023/07/03 04:10:13;;;;;;;8.50;6.80;;;;;;;20.52;100.00;100459.43;109487;1243;57827;-72
2023/07/03 04:12:42;;;;;;;8.50;6.50;;;;;;;20.53;100.00;100462.55;109443;1243;58290;-72
2023/07/03 04:15:11;;;;;;;8.50;6.50;;;;;;;20.54;100.00;100465.42;109383;1243;74294;-72
2023/07/03 04:17:39;;;;;;;8.10;6.30;;;;;;;20.58;100.00;100468.98;109378;1244;71840;-72
2023/07/03 04:20:15;;;;;;;9.40;6.40;;;;;;;20.52;100.00;100472.65;109484;1243;60503;-72
2023/07/03 04:22:44;;;;;;;8.90;6.60;;;;;;;20.52;100.00;100473.75;109459;1243;73258;-72
2023/07/03 04:25:13;;;;;;;8.00;7.20;;;;;;;20.51;100.00;100478.08;109321;1245;57917;-72
2023/07/03 04:27:42;;;;;;;6.90;6.20;;;;;;;20.46;100.00;100482.96;109312;1243;58267;-72
2023/07/03 04:30:12;;;;;;;9.00;7.00;;;;;;;20.51;100.00;100482.68;109338;1243;74463;-72
2023/07/03 04:32:41;;;;;;;8.70;6.90;;;;;;;20.51;100.00;100486.80;109331;1243;71147;-72
2023/07/03 04:35:10;;;;;;;10.20;7.40;;;;;;;20.52;100.00;100492.73;109327;1243;70866;-72
2023/07/03 04:37:39;;;;;;;10.60;7.50;;;;;;;20.50;100.00;100492.91;109287;1243;74373;-72
2023/07/03 04:40:09;;;;;;;8.50;6.90;;;;;;;20.52;100.00;100497.98;109166;1244;62448;-72
2023/07/03 04:42:37;;;;;;;8.70;6.70;;;;;;;20.58;100.00;100496.56;109304;1244;61678;-72
2023/07/03 04:45:08;;;;;;;11.20;7.00;;;;;;;20.55;100.00;100501.16;109317;1243;63792;-72
2023/07/03 04:47:39;;;;;;;9.10;7.20;;;;;;;20.60;100.00;100498.66;109352;1243;72178;-73
2023/07/03 04:50:15;;;;;;;8.50;7.40;;;;;;;20.56;100.00;100502.77;109268;1243;71118;-73
2023/07/03 04:52:46;;;;;;;9.00;7.70;;;;;;;20.59;100.00;100503.02;109468;1243;63255;-73
2023/07/03 04:55:14;;;;;;;9.50;7.50;;;;;;;20.65;100.00;100502.81;109387;1243;62755;-73
2023/07/03 04:57:45;;;;;;;10.00;6.70;;;;;;;20.67;100.00;100503.63;109492;1244;58188;-73
2023/07/03 05:00:18;;;;;;;10.90;7.60;;;;;;;20.66;100.00;100506.27;109323;1243;63278;-72
2023/07/03 05:02:48;;;;;;;;;;;;;;;20.71;100.00;100507.97;109319;1243;70704;-72
2023/07/03 05:05:20;;;;;;;11.00;8.40;;;;;;;20.72;100.00;100507.99;109533;1243;60224;-72
2023/07/03 05:07:49;;;;;;;8.30;6.70;;;;;;;20.73;100.00;100510.41;109514;1243;62856;-72
2023/07/03 05:10:22;;;;;;;8.80;6.70;;;;;;;20.73;100.00;100511.63;109508;1245;58356;-72
2023/07/03 05:12:51;;;;;;;8.80;7.00;;;;;;;20.78;100.00;100513.51;109516;1243;61884;-71
2023/07/03 05:15:20;;;;;;;9.30;6.90;;;;;;;20.77;100.00;100517.86;109466;1243;74271;-72
2023/07/03 05:17:57;;;;;;;9.00;7.50;;;;;;;20.78;100.00;100519.67;109396;1243;61975;-72
2023/07/03 05:20:28;;;;;;;8.30;6.80;;;;;;;20.83;100.00;100521.30;109374;1244;69130;-73
2023/07/03 05:22:57;;;;;;;8.20;6.40;;;;;;;20.81;100.00;100516.29;109395;1243;63396;-72
2023/07/03 05:25:26;;;;;;;9.70;6.60;;;;;;;20.78;100.00;100528.82;109498;1244;60957;-73
2023/07/03 05:27:55;;;;;;;8.20;6.70;;;;;;;20.90;100.00;100526.88;109524;1243;58438;-71
2023/07/03 05:30:24;;;;;;;9.00;6.30;;;;;;;20.91;100.00;100532.25;109525;1243;71643;-72
2023/07/03 05:32:54;;;;;;;8.10;6.20;;;;;;;20.96;100.00;100532.60;109393;1243;62000;-72
2023/07/03 05:35:23;;;;;;;9.50;6.80;;;;;;;21.00;100.00;100532.52;109409;1243;60088;-72
2023/07/03 05:37:52;;;;;;;8.20;6.80;;;;;;;21.02;100.00;100534.48;109466;1243;62295;-72
2023/07/03 05:40:21;;;;;;;9.10;6.50;;;;;;;21.05;100.00;100533.63;109481;1244;64093;-72
2023/07/03 05:42:49;;;;;;;11.20;6.10;;;;;;;21.11;100.00;100537.01;109429;1243;61683;-72
2023/07/03 05:45:18;;;;;;;8.40;6.70;;;;;;;21.14;100.00;100540.52;109484;1243;64800;-72
2023/07/03 05:47:47;;;;;;;8.00;6.40;;;;;;;21.16;100.00;100543.75;109508;1243;60992;-73
2023/07/03 05:50:16;;;;;;;10.10;6.30;;;;;;;21.17;100.00;100543.80;109525;1243;59492;-72
2023/07/03 05:52:45;;;;;;;9.50;6.30;;;;;;;21.21;100.00;100542.45;109476;1243;63741;-73
2023/07/03 05:55:14;;;;;;;6.80;5.60;;;;;;;21.22;100.00;100544.92;109446;1244;62682;-73
2023/07/03 05:57:43;;;;;;;17.20;7.30;;;;;;;21.27;100.00;100543.58;109394;1244;58254;-72
2023/07/03 06:00:13;;;;;;;10.10;6.60;;;;;;;21.30;100.00;100545.90;109399;1244;63032;-73
2023/07/03 06:02:47;;;;;;;9.70;6.60;;;;;;;21.36;100.00;100546.90;109535;1243;63135;-75
2023/07/03 06:05:17;;;;;;;9.00;6.80;;;;;;;21.14;100.00;100548.81;109419;1243;71072;-72
2023/07/03 06:07:46;;;;;;;10.90;6.90;;;;;;;20.54;100.00;100555.01;109497;1244;74695;-72
2023/07/03 06:10:15;;;;;;;9.90;7.60;;;;;;;20.23;100.00;100555.48;109405;1244;62724;-74
2023/07/03 06:12:44;;;;;;;9.60;8.50;;;;;;;19.97;100.00;100553.59;109524;1243;61748;-73
2023/07/03 06:15:12;;;;;;;10.70;8.40;;;;;;;19.90;100.00;100560.23;109449;1243;74811;-73
2023/07/03 06:17:42;;;;;;;10.00;8.70;;;;;;;19.75;100.00;100560.11;109472;1243;61026;-73
2023/07/03 06:20:11;;;;;;;12.20;8.50;;;;;;;19.70;100.00;100559.05;109446;1243;70499;-73
2023/07/03 06:22:42;;;;;;;11.00;8.40;;;;;;;19.71;100.00;100562.27;109479;1243;63594;-73
2023/07/03 06:25:11;;;;;;;10.70;8.80;;;;;;;19.76;100.00;100566.00;109385;1243;62130;-73
2023/07/03 06:27:40;;;;;;;10.20;8.70;;;;;;;19.82;100.00;100565.64;109489;1243;60865;-73
2023/07/03 06:30:09;;;;;;;12.30;9.40;;;;;;;19.89;100.00;100571.42;109394;1245;63382;-73
2023/07/03 06:32:38;;;;;;;9.80;7.90;;;;;;;20.07;100.00;100572.17;109400;1243;61765;-73
2023/07/03 06:35:08;;;;;;;10.70;7.80;;;;;;;20.15;100.00;100569.30;109430;1243;59139;-73
2023/07/03 06:37:37;;;;;;;10.90;7.80;;;;;;;20.26;100.00;100568.35;109356;1244;73274;-73
2023/07/03 06:40:10;;;;;;;11.90;8.20;;;;;;;20.41;100.00;100571.60;109559;1244;63349;-74
2023/07/03 06:42:39;;;;;;;10.10;7.10;;;;;;;20.57;100.00;100572.42;109566;1243;57700;-74
2023/07/03 06:45:14;;;;;;;8.00;6.90;;;;;;;20.72;100.00;100577.73;109437;1243;74429;-74
2023/07/03 06:47:43;;;;;;;10.20;7.20;;;;;;;20.86;100.00;100573.35;109551;1243;71187;-73
2023/07/03 06:50:12;;;;;;;9.40;7.40;;;;;;;21.01;100.00;100569.70;109554;1243;59624;-73
2023/07/03 06:52:42;;;;;;;11.00;8.50;;;;;;;21.16;100.00;100573.20;109410;1243;63303;-72
2023/07/03 06:55:11;;;;;;;9.30;7.50;;;;;;;21.30;100.00;100575.41;109428;1243;61899;-73
2023/07/03 06:57:39;;;;;;;13.00;7.90;;;;;;;21.37;100.00;100578.63;109455;1243;62042;-74
2023/07/03 07:00:09;;;;;;;9.40;7.80;;;;;;;21.48;100.00;100580.69;109500;1243;64179;-74
2023/07/03 07:02:38;;;;;;;12.00;8.30;;;;;;;21.57;100.00;100585.02;109411;1243;60960;-74
2023/07/03 07:05:08;;;;;;;10.10;7.60;;;;;;;21.57;100.00;100584.80;109428;1243;71194;-75
2023/07/03 07:07:37;;;;;;;10.10;7.30;;;;;;;21.70;100.00;100580.95;109489;1244;63859;-74
2023/07/03 07:10:07;;;;;;;8.50;7.00;;;;;;;21.76;100.00;100576.69;109485;1244;58206;-74
2023/07/03 07:12:36;;;;;;;8.50;7.30;;;;;;;21.81;100.00;100572.42;109278;1244;58319;-74
2023/07/03 07:15:06;;;;;;;11.80;7.90;;;;;;;21.90;100.00;100579.48;109365;1243;72559;-73
2023/07/03 07:17:35;;;;;;;10.20;7.50;;;;;;;22.00;100.00;100584.15;109231;1243;72034;-75
2023/07/03 07:20:19;;;;;;;9.90;7.70;;;;;;;22.12;100.00;100588.33;109331;1243;71033;-74
2023/07/03 07:22:48;;;;;;;8.40;7.00;;;;;;;22.24;100.00;100586.72;109306;1243;63825;-74
2023/07/03 07:25:17;;;;;;;10.60;7.90;;;;;;;22.31;100.00;100586.34;109124;1247;58270;-74
2023/07/03 07:27:46;;;;;;;10.70;8.00;;;;;;;22.40;100.00;100590.41;109238;1244;57727;-74
2023/07/03 07:30:15;;;;;;;9.40;8.00;;;;;;;22.59;100.00;100584.42;109323;1243;74326;-74
2023/07/03 07:32:47;;;;;;;10.30;6.90;;;;;;;22.67;100.00;100588.80;109276;1243;72987;-74
2023/07/03 07:35:16;;;;;;;8.80;7.10;;;;;;;22.64;100.00;100591.77;109265;1243;70106;-74
2023/07/03 07:37:45;;;;;;;9.80;7.80;;;;;;;22.87;100.00;100593.71;109228;1246;72443;-73
2023/07/03 07:40:16;;;;;;;10.20;8.40;;;;;;;22.88;100.00;100587.65;109184;1247;63435;-74
2023/07/03 07:42:45;;;;;;;9.20;7.30;;;;;;;23.16;100.00;100589.90;109357;1243;61212;-74
2023/07/03 07:45:13;;;;;;;8.60;6.90;;;;;;;23.38;100.00;100596.38;109449;1243;75493;-74
2023/07/03 07:47:42;;;;;;;9.40;7.40;;;;;;;23.41;100.00;100597.66;109505;1243;61555;-73
2023/07/03 07:50:12;;;;;;;8.90;7.40;;;;;;;23.42;100.00;100596.45;109494;1244;59792;-73
2023/07/03 07:52:41;;;;;;;11.40;7.20;;;;;;;23.53;100.00;100596.77;109308;1243;72866;-73
2023/07/03 07:55:10;;;;;;;9.00;7.50;;;;;;;23.63;100.00;100601.55;109702;1244;62849;-73
2023/07/03 07:57:39;;;;;;;9.40;7.00;;;;;;;23.80;100.00;100602.21;109663;1243;62200;-74
2023/07/03 08:00:10;;;;;;;11.90;7.70;;;;;;;23.88;100.00;100607.24;109739;1244;63274;-72
2023/07/03 08:02:43;;;;;;;9.20;7.30;;;;;;;23.82;100.00;100614.98;109620;1243;72167;-74
2023/07/03 08:05:13;;;;;;;9.20;7.40;;;;;;;23.84;100.00;100610.73;109726;1243;70171;-70
2023/07/03 08:07:42;;;;;;;10.60;7.00;;;;;;;23.83;100.00;100612.36;109571;1243;62902;-72
2023/07/03 08:10:12;;;;;;;10.20;7.50;;;;;;;23.99;100.00;100609.98;109556;1246;58340;-72
2023/07/03 08:12:42;;;;;;;11.70;7.00;;;;;;;24.14;100.00;100607.89;109467;1243;61378;-71
2023/07/03 08:15:12;;;;;;;10.70;7.30;;;;;;;24.31;99.56;100611.21;109531;1246;63810;-73
2023/07/03 08:17:40;;;;;;;8.50;7.60;;;;;;;24.50;98.32;100608.42;109412;1243;72212;-72
2023/07/03 08:20:11;;;;;;;9.60;7.80;;;;;;;24.55;98.59;100609.91;109370;1243;71397;-73
2023/07/03 08:22:41;;;;;;;9.70;7.20;;;;;;;24.71;96.98;100611.83;109336;1245;63639;-73
2023/07/03 08:25:10;;;;;;;10.10;7.70;;;;;;;24.85;96.33;100612.45;109335;1244;62128;-73
2023/07/03 08:27:46;;;;;;;9.80;7.50;;;;;;;24.74;96.12;100621.83;109432;1245;57777;-74
2023/07/03 08:30:15;;;;;;;8.40;7.50;;;;;;;24.80;94.49;100614.88;109519;1243;65376;-74
2023/07/03 08:32:43;;;;;;;7.90;7.10;;;;;;;24.84;94.98;100610.28;109302;1243;71345;-72
2023/07/03 08:35:12;;;;;;;9.90;7.40;;;;;;;24.99;94.46;100613.34;109489;1243;70121;-73
2023/07/03 08:37:44;;;;;;;9.60;7.20;;;;;;;25.06;92.54;100616.35;109462;1245;63761;-72
2023/07/03 08:40:19;;;;;;;8.60;7.00;;;;;;;25.12;91.87;100618.34;109479;1245;58051;-73
2023/07/03 08:42:53;;;;;;;8.80;7.20;;;;;;;25.17;92.51;100619.48;109403;1245;58434;-72
2023/07/03 08:45:33;;;;;;;9.30;6.50;;;;;;;25.17;92.70;100617.00;109519;1244;63801;-72
2023/07/03 08:48:10;;;;;;;7.90;7.10;;;;;;;25.33;92.57;100608.98;109342;1243;71469;-73
2023/07/03 08:51:04;;;;;;;9.10;7.60;;;;;;;25.50;92.96;100610.92;109455;1243;70996;-74
2023/07/03 08:53:40;;;;;;;8.60;6.70;;;;;;;25.64;91.48;100611.16;109507;1243;74591;-73
2023/07/03 08:56:14;;;;;;;8.40;6.90;;;;;;;25.74;90.56;100608.01;109239;1243;58355;-74
2023/07/03 08:58:45;;;;;;;9.80;6.80;;;;;;;25.81;90.29;100613.86;109542;1243;58140;-72
2023/07/03 09:01:41;;;;;;;6.80;5.70;;;;;;;25.87;88.24;100613.70;109416;1247;64000;-72
2023/07/03 09:04:49;;;;;;;8.40;6.60;;;;;;;25.97;87.03;100611.85;109533;1245;62099;-72
2023/07/03 09:07:46;;;;;;;11.50;7.40;;;;;;;26.09;87.36;100612.23;109438;1245;59139;-72
2023/07/03 09:10:22;;;;;;;9.10;7.20;;;;;;;26.17;86.74;100606.45;109510;1243;64871;-72
2023/07/03 09:13:17;;;;;;;10.00;7.00;;;;;;;26.23;86.36;100614.54;109507;1244;57776;-73
2023/07/03 09:16:11;;;;;;;11.40;6.90;;;;;;;26.13;84.61;100612.58;109363;1243;60235;-72
2023/07/03 09:18:54;;;;;;;10.10;7.10;;;;;;;26.21;82.74;100600.48;109499;1243;74140;-73
2023/07/03 09:21:26;;;;;;;8.30;6.90;;;;;;;26.33;83.03;100603.83;109323;1247;72601;-73
2023/07/03 09:24:05;;;;;;;8.20;6.90;;;;;;;26.45;83.17;100601.09;109454;1247;59081;-73
2023/07/03 09:26:44;;;;;;;8.90;6.60;;;;;;;26.58;82.75;100598.37;109429;1243;63068;-72
2023/07/03 09:29:13;;;;;;;8.10;6.40;;;;;;;26.80;82.57;100599.28;109421;1244;58292;-73
2023/07/03 09:31:42;;;;;;;10.00;6.70;;;;;;;26.93;80.83;100598.50;109503;1243;61084;-74
2023/07/03 09:34:10;;;;;;;8.80;6.80;;;;;;;27.00;80.74;100591.05;109525;1243;74712;-73
2023/07/03 09:36:43;;;;;;;9.90;6.60;;;;;;;27.11;80.17;100595.00;109507;1245;61129;-73
2023/07/03 09:39:18;;;;;;;9.80;6.90;;;;;;;27.23;79.76;100595.46;109534;1244;59079;-73
2023/07/03 09:41:47;;;;;;;7.50;6.70;;;;;;;27.36;78.51;100592.27;109478;1243;73091;-72
2023/07/03 09:44:18;;;;;;;7.50;6.20;;;;;;;27.29;78.37;100595.11;109493;1244;61448;-72
2023/07/03 09:46:48;;;;;;;10.50;6.90;;;;;;;27.47;77.71;100589.25;109271;1247;62280;-73
2023/07/03 09:49:28;;;;;;;8.20;7.10;;;;;;;27.64;78.09;100588.63;109465;1243;64267;-74
2023/07/03 09:51:59;;;;;;;7.90;6.50;;;;;;;27.87;75.76;100589.22;109286;1247;72466;-73
2023/07/03 09:54:31;;;;;;;9.40;7.00;;;;;;;27.83;73.12;100588.95;109411;1243;61190;-73
2023/07/03 09:57:05;;;;;;;9.40;7.00;;;;;;;27.85;69.89;100586.36;109469;1243;63559;-72
2023/07/03 09:59:35;;;;;;;8.00;6.90;;;;;;;27.98;68.80;100584.98;109367;1247;61386;-72
2023/07/03 10:02:11;;;;;;;8.60;6.00;;;;;;;28.11;68.94;100589.77;109433;1243;60677;-72
2023/07/03 10:04:45;;;;;;;6.50;5.40;;;;;;;28.15;66.93;100587.16;109504;1244;74267;-75
2023/07/03 10:07:18;;;;;;;7.70;5.40;;;;;;;28.25;65.17;100585.65;109338;1243;71941;-73
2023/07/03 10:09:48;;;;;;;8.20;5.50;;;;;;;28.37;64.80;100587.40;109325;1244;60255;-73
2023/07/03 10:12:34;;;;;;;7.00;6.10;;;;;;;28.66;65.15;100587.61;109502;1243;63255;-73
2023/07/03 10:15:20;;;;;;;7.90;6.30;;;;;;;28.89;65.17;100580.67;109407;1246;58193;-72
2023/07/03 10:17:59;;;;;;;8.30;6.20;;;;;;;29.21;65.19;100588.70;109435;1243;57765;-72
2023/07/03 10:20:44;;;;;;;8.10;5.90;;;;;;;29.32;64.19;100585.89;109433;1243;63877;-72
2023/07/03 10:23:23;;;;;;;8.90;6.30;;;;;;;29.04;64.31;100582.79;109444;1243;60931;-73
2023/07/03 10:26:25;;;;;;;7.80;6.50;;;;;;;28.82;64.91;100587.88;109539;1243;70581;-72
2023/07/03 10:29:30;;;;;;;8.60;6.80;;;;;;;28.91;63.83;100583.47;109317;1243;63861;-73
2023/07/03 10:32:06;;;;;;;6.80;6.10;;;;;;;28.68;64.30;100582.08;109584;1244;57875;-72
2023/07/03 10:35:17;;;;;;;7.80;5.90;;;;;;;29.05;62.41;100576.80;109272;1243;58275;-73
2023/07/03 10:38:01;;;;;;;8.20;5.90;;;;;;;29.68;61.19;100573.29;109339;1244;73746;-73
2023/07/03 10:40:43;;;;;;;10.20;6.20;;;;;;;29.91;61.37;100581.08;109417;1243;62275;-72
2023/07/03 10:43:13;;;;;;;7.70;6.20;;;;;;;30.00;61.08;100586.70;109405;1243;69002;-72
2023/07/03 10:45:54;;;;;;;8.10;6.30;;;;;;;29.75;61.43;100584.60;109375;1243;62989;-73
2023/07/03 10:48:35;;;;;;;7.80;6.10;;;;;;;29.43;62.62;100581.55;109412;1244;58295;-71
2023/07/03 10:51:25;;;;;;;9.80;6.70;;;;;;;29.19;62.93;100582.23;109388;1244;57803;-73
2023/07/03 10:54:05;;;;;;;8.40;6.60;;;;;;;29.07;63.22;100581.05;109246;1244;65732;-71
2023/07/03 10:56:53;;;;;;;10.00;6.30;;;;;;;29.23;63.40;100580.81;109344;1244;61995;-75
2023/07/03 10:59:28;;;;;;;8.50;6.60;;;;;;;29.94;61.56;100571.19;109305;1244;69398;-74
2023/07/03 11:02:05;;;;;;;7.80;6.70;;;;;;;30.34;59.46;100568.55;109329;1244;64831;-70
2023/07/03 11:04:52;;;;;;;9.70;6.20;;;;;;;30.30;58.83;100566.70;109443;1245;61814;-70
2023/07/03 11:07:38;;;;;;;7.80;6.20;;;;;;;29.76;60.12;100566.75;109397;1243;58267;-69
2023/07/03 11:10:38;;;;;;;9.10;6.30;;;;;;;29.43;61.93;100570.77;109385;1244;71429;-69
2023/07/03 11:13:59;;;;;;;8.00;6.50;;;;;;;30.10;59.89;100570.23;109404;1244;73028;-69
2023/07/03 11:16:51;;;;;;;7.00;5.60;;;;;;;30.71;58.45;100566.82;109224;1244;60806;-68
2023/07/03 11:19:40;;;;;;;9.70;5.50;;;;;;;30.89;57.14;100571.89;109240;1244;63167;-69
2023/07/03 11:22:20;;;;;;;7.80;5.90;;;;;;;30.67;56.22;100575.09;109162;1246;59549;-69
2023/07/03 11:25:10;;;;;;;12.00;6.30;;;;;;;30.64;56.59;100568.70;109188;1243;57728;-72
2023/07/03 11:28:07;;;;;;;6.30;5.60;;;;;;;30.93;55.97;100561.58;109378;1245;64476;-71
2023/07/03 11:30:42;;;;;;;9.40;5.50;;;;;;;31.38;54.84;100553.06;109455;1244;62641;-72
2023/07/03 11:33:13;;;;;;;8.20;5.00;;;;;;;32.12;52.57;100549.04;109285;1243;68985;-72
2023/07/03 11:35:57;;;;;;;7.00;5.20;;;;;;;32.62;51.74;100552.63;109377;1243;62922;-71